createdAt,value
2018-07-03T00:01:25.656Z,1.53
2018-07-03T00:03:52.697Z,1.70
2018-07-03T00:06:19.695Z,1.40
2018-07-03T00:08:46.704Z,1.63
2018-07-03T00:11:13.718Z,1.90
2018-07-03T00:13:40.795Z,2.00
2018-07-03T00:16:07.791Z,1.90
2018-07-03T00:18:34.820Z,2.13
2018-07-03T00:21:01.805Z,1.60
2018-07-03T00:23:28.802Z,2.00
2018-07-03T00:25:55.828Z,1.73
2018-07-03T00:28:22.820Z,2.10
2018-07-03T00:30:49.813Z,2.00
2018-07-03T00:33:16.852Z,1.80
2018-07-03T00:35:43.853Z,1.83
2018-07-03T00:38:10.856Z,2.00
2018-07-03T00:40:37.928Z,2.00
2018-07-03T00:43:04.922Z,1.83
2018-07-03T00:45:31.912Z,1.43
2018-07-03T00:47:58.950Z,1.60
2018-07-03T00:50:25.943Z,2.10
2018-07-03T00:52:52.925Z,1.93
2018-07-03T00:55:19.952Z,1.80
2018-07-03T00:57:46.943Z,2.07
2018-07-03T01:03:03.742Z,2.20
2018-07-03T01:05:30.776Z,2.10
2018-07-03T01:07:57.759Z,1.93
2018-07-03T01:10:24.735Z,2.07
2018-07-03T01:12:51.770Z,2.20
2018-07-03T01:15:18.786Z,1.67
2018-07-03T01:17:46.583Z,2.07
2018-07-03T01:20:13.598Z,1.73
2018-07-03T01:22:40.594Z,2.40
2018-07-03T01:25:07.587Z,2.03
2018-07-03T01:27:34.614Z,1.90
2018-07-03T01:30:01.610Z,2.13
2018-07-03T01:32:28.605Z,1.70
2018-07-03T01:34:55.639Z,1.87
2018-07-03T01:37:22.652Z,1.80
2018-07-03T01:39:49.721Z,2.10
2018-07-03T01:42:17.721Z,2.00
2018-07-03T01:44:44.714Z,1.77
2018-07-03T01:47:11.806Z,2.13
2018-07-03T01:49:38.840Z,1.97
2018-07-03T01:52:05.834Z,2.67
2018-07-03T01:54:32.828Z,2.40
2018-07-03T01:56:59.851Z,1.80
2018-07-03T01:59:26.932Z,2.30
2018-07-03T02:01:53.925Z,2.80
2018-07-03T02:04:20.971Z,2.20
2018-07-03T02:06:47.972Z,2.20
2018-07-03T02:09:14.970Z,1.97
2018-07-03T02:11:42.102Z,2.50
2018-07-03T02:14:09.103Z,2.50
2018-07-03T02:16:36.089Z,2.37
2018-07-03T02:19:03.121Z,2.00
2018-07-03T02:21:30.108Z,2.20
2018-07-03T02:26:35.590Z,2.47
2018-07-03T02:29:02.579Z,2.43
2018-07-03T02:31:29.577Z,2.30
2018-07-03T02:33:56.618Z,2.30
2018-07-03T02:36:23.614Z,1.90
2018-07-03T02:38:50.605Z,2.77
2018-07-03T02:41:17.640Z,2.17
2018-07-03T02:43:44.641Z,2.57
2018-07-03T02:46:11.636Z,2.30
2018-07-03T02:48:39.600Z,2.10
2018-07-03T02:51:07.422Z,2.60
2018-07-03T02:53:34.404Z,2.73
2018-07-03T02:56:01.442Z,2.73
2018-07-03T02:58:28.436Z,3.10
2018-07-03T03:00:55.443Z,3.00
2018-07-03T03:03:22.459Z,2.63
2018-07-03T03:05:49.457Z,2.53
2018-07-03T03:08:17.342Z,3.40
2018-07-03T03:10:44.316Z,2.70
2018-07-03T03:13:11.308Z,3.00
2018-07-03T03:15:38.306Z,3.20
2018-07-03T03:18:05.328Z,3.57
2018-07-03T03:20:32.307Z,2.80
2018-07-03T03:22:59.292Z,2.70
2018-07-03T03:25:26.338Z,3.37
2018-07-03T03:27:53.472Z,2.80
2018-07-03T03:30:20.478Z,3.23
2018-07-03T03:32:47.494Z,3.00
2018-07-03T03:35:14.488Z,2.70
2018-07-03T03:37:41.494Z,2.43
2018-07-03T03:40:08.534Z,2.53
2018-07-03T03:45:14.036Z,2.70
2018-07-03T03:47:41.027Z,3.00
2018-07-03T03:50:08.031Z,3.43
2018-07-03T03:52:35.133Z,2.87
2018-07-03T03:55:02.161Z,2.77
2018-07-03T03:57:29.161Z,2.40
2018-07-03T03:59:56.295Z,2.50
2018-07-03T04:02:23.296Z,2.40
2018-07-03T04:04:50.296Z,2.80
2018-07-03T04:07:18.144Z,2.60
2018-07-03T04:09:45.138Z,2.47
2018-07-03T04:12:12.132Z,3.23
2018-07-03T04:14:39.156Z,2.83
2018-07-03T04:17:06.145Z,3.00
2018-07-03T04:19:33.138Z,2.80
2018-07-03T04:22:00.176Z,3.00
2018-07-03T04:24:27.928Z,2.73
2018-07-03T04:26:54.926Z,3.10
2018-07-03T04:29:21.958Z,2.80
2018-07-03T04:31:48.943Z,2.70
2018-07-03T04:34:16.864Z,2.70
2018-07-03T04:36:43.882Z,3.00
2018-07-03T04:39:10.894Z,2.67
2018-07-03T04:41:37.892Z,2.80
2018-07-03T04:44:04.927Z,2.80
2018-07-03T04:49:10.436Z,3.17
2018-07-03T04:51:37.443Z,3.10
2018-07-03T04:54:04.440Z,2.90
2018-07-03T04:56:31.717Z,2.80
2018-07-03T04:58:58.551Z,2.63
2018-07-03T05:01:25.570Z,2.57
2018-07-03T05:03:52.601Z,2.97
2018-07-03T05:06:19.682Z,3.23
2018-07-03T05:08:46.692Z,2.70
2018-07-03T05:11:14.529Z,2.83
2018-07-03T05:13:41.534Z,3.77
2018-07-03T05:16:09.504Z,3.20
2018-07-03T05:18:36.521Z,3.03
2018-07-03T05:21:03.511Z,3.20
2018-07-03T05:23:30.501Z,3.57
2018-07-03T05:25:57.534Z,3.13
2018-07-03T05:28:24.520Z,3.40
2018-07-03T05:30:51.510Z,3.60
2018-07-03T05:33:18.547Z,3.60
2018-07-03T05:35:45.546Z,3.50
2018-07-03T05:38:12.682Z,3.63
2018-07-03T05:40:39.652Z,3.73
2018-07-03T05:43:06.649Z,3.43
2018-07-03T05:45:33.657Z,3.57
2018-07-03T05:48:00.692Z,4.40
2018-07-03T05:50:27.689Z,3.60
2018-07-03T05:52:54.701Z,3.53
2018-07-03T05:55:21.715Z,3.50
2018-07-03T05:57:48.719Z,3.93
2018-07-03T06:00:16.639Z,4.07
2018-07-03T06:02:43.709Z,3.63
2018-07-03T06:07:50.128Z,3.75
2018-07-03T06:10:17.101Z,4.40
2018-07-03T06:12:44.091Z,3.73
2018-07-03T06:15:12.105Z,4.90
2018-07-03T06:17:39.101Z,4.60
2018-07-03T06:20:06.149Z,4.33
2018-07-03T06:22:33.155Z,4.57
2018-07-03T06:25:00.166Z,4.60
2018-07-03T06:27:27.157Z,4.93
2018-07-03T06:29:56.415Z,4.77
2018-07-03T06:32:23.570Z,4.63
2018-07-03T06:34:51.381Z,4.90
2018-07-03T06:37:18.967Z,4.47
2018-07-03T06:39:45.906Z,4.40
2018-07-03T06:42:13.731Z,5.57
2018-07-03T06:44:40.787Z,4.47
2018-07-03T06:47:07.902Z,3.37
2018-07-03T06:49:34.795Z,3.50
2018-07-03T06:52:01.839Z,3.70
2018-07-03T06:54:28.899Z,3.60
2018-07-03T06:56:55.901Z,3.50
2018-07-03T06:59:22.932Z,3.70
2018-07-03T07:01:49.938Z,3.83
2018-07-03T07:04:17.371Z,3.00
2018-07-03T07:06:44.420Z,3.30
2018-07-03T07:09:11.511Z,2.53
2018-07-03T07:11:38.424Z,2.70
2018-07-03T07:14:05.459Z,2.73
2018-07-03T07:19:13.000Z,3.30
2018-07-03T07:21:40.827Z,3.20
2018-07-03T07:24:08.796Z,3.53
2018-07-03T07:26:36.794Z,3.37
2018-07-03T07:29:03.792Z,2.93
2018-07-03T07:31:30.794Z,3.17
2018-07-03T07:33:57.844Z,3.50
2018-07-03T07:36:24.931Z,3.33
2018-07-03T07:38:51.927Z,3.50
2018-07-03T07:41:18.956Z,3.10
2018-07-03T07:43:45.955Z,3.10
2018-07-03T07:46:13.785Z,4.00
2018-07-03T07:48:41.767Z,3.70
2018-07-03T07:51:08.764Z,3.90
2018-07-03T07:53:36.589Z,3.67
2018-07-03T07:56:03.612Z,3.37
2018-07-03T07:58:30.613Z,3.73
2018-07-03T08:00:57.615Z,4.10
2018-07-03T08:03:25.466Z,3.90
2018-07-03T08:05:52.552Z,4.23
2018-07-03T08:08:20.492Z,4.43
2018-07-03T08:10:48.347Z,5.03
2018-07-03T08:13:15.385Z,4.57
2018-07-03T08:15:42.359Z,3.80
2018-07-03T08:18:09.406Z,4.60
2018-07-03T08:20:36.398Z,3.93
2018-07-03T08:23:03.401Z,3.40
2018-07-03T08:25:30.437Z,3.70
2018-07-03T08:27:57.433Z,4.30
2018-07-03T08:30:24.438Z,3.10
2018-07-03T08:32:51.476Z,3.80
2018-07-03T08:37:57.933Z,3.50
2018-07-03T08:40:24.952Z,3.23
2018-07-03T08:42:52.818Z,4.27
2018-07-03T08:45:19.831Z,3.70
2018-07-03T08:47:46.841Z,3.77
2018-07-03T08:50:13.848Z,3.70
2018-07-03T08:52:40.879Z,3.73
2018-07-03T08:55:07.947Z,3.90
2018-07-03T08:57:35.757Z,3.67
2018-07-03T09:00:02.788Z,3.23
2018-07-03T09:02:29.874Z,3.90
2018-07-03T09:04:56.879Z,3.93
2018-07-03T09:07:23.931Z,3.53
2018-07-03T09:09:51.912Z,3.67
2018-07-03T09:12:18.923Z,3.80
2018-07-03T09:14:45.954Z,3.20
2018-07-03T09:17:12.959Z,3.70
2018-07-03T09:19:39.955Z,3.67
2018-07-03T09:22:06.997Z,3.73
2018-07-03T09:24:33.998Z,3.47
2018-07-03T09:27:00.984Z,3.87
2018-07-03T09:29:28.022Z,4.33
2018-07-03T09:31:55.026Z,4.07
2018-07-03T09:34:22.037Z,4.07
2018-07-03T09:36:49.885Z,4.57
2018-07-03T09:41:56.320Z,4.33
2018-07-03T09:44:24.278Z,4.17
2018-07-03T09:46:52.091Z,4.70
2018-07-03T09:49:19.132Z,4.83
2018-07-03T09:51:46.159Z,4.90
2018-07-03T09:54:13.160Z,4.63
2018-07-03T09:56:40.196Z,5.03
2018-07-03T09:59:07.205Z,4.40
2018-07-03T10:01:34.195Z,4.60
2018-07-03T10:04:01.231Z,4.60
2018-07-03T10:06:28.236Z,4.70
2018-07-03T10:08:55.234Z,4.60
2018-07-03T10:11:23.075Z,4.60
2018-07-03T10:13:50.074Z,4.40
2018-07-03T10:16:17.074Z,4.00
2018-07-03T10:18:44.105Z,4.53
2018-07-03T10:21:11.946Z,3.93
2018-07-03T10:23:38.951Z,4.60
2018-07-03T10:26:05.998Z,4.20
2018-07-03T10:28:33.004Z,4.50
2018-07-03T10:31:00.018Z,4.57
2018-07-03T10:33:27.043Z,4.23
2018-07-03T10:35:54.061Z,4.27
2018-07-03T10:38:21.064Z,4.40
2018-07-03T10:40:48.923Z,4.17
2018-07-03T10:43:15.931Z,4.77
2018-07-03T10:45:42.928Z,4.10
2018-07-03T10:48:09.957Z,5.00
2018-07-03T10:53:18.411Z,4.70
2018-07-03T10:55:45.405Z,4.30
2018-07-03T10:58:12.409Z,4.20
2018-07-03T11:00:39.432Z,3.83
2018-07-03T11:03:06.432Z,3.67
2018-07-03T11:05:33.429Z,4.30
2018-07-03T11:08:00.469Z,4.33
2018-07-03T11:10:27.473Z,4.60
2018-07-03T11:12:54.476Z,4.07
2018-07-03T11:15:21.562Z,4.23
2018-07-03T11:17:48.514Z,3.80
2018-07-03T11:20:16.510Z,4.13
2018-07-03T11:22:43.512Z,4.00
2018-07-03T11:25:10.599Z,3.73
2018-07-03T11:27:38.670Z,4.03
2018-07-03T11:30:05.553Z,4.67
2018-07-03T11:32:32.555Z,4.53
2018-07-03T11:34:59.554Z,4.40
2018-07-03T11:37:27.520Z,3.77
2018-07-03T11:39:55.466Z,3.43
2018-07-03T11:42:22.472Z,3.37
2018-07-03T11:44:49.553Z,3.00
2018-07-03T11:47:17.472Z,2.63
2018-07-03T11:49:44.483Z,3.20
2018-07-03T11:52:11.535Z,2.67
2018-07-03T11:54:38.531Z,2.97
2018-07-03T11:57:05.535Z,2.90
2018-07-03T11:59:33.501Z,2.80
2018-07-03T12:02:00.597Z,2.70
2018-07-03T12:04:27.600Z,2.90
2018-07-03T12:06:55.478Z,2.80
2018-07-03T12:12:01.006Z,3.10
2018-07-03T12:14:28.005Z,2.37
2018-07-03T12:16:55.003Z,2.67
2018-07-03T12:19:22.023Z,2.43
2018-07-03T12:21:49.035Z,2.60
2018-07-03T12:24:16.858Z,2.70
2018-07-03T12:26:43.894Z,2.63
2018-07-03T12:29:10.929Z,2.70
2018-07-03T12:31:37.890Z,2.53
2018-07-03T12:34:04.941Z,3.20
2018-07-03T12:36:32.027Z,3.33
2018-07-03T12:38:59.033Z,2.67
2018-07-03T12:41:26.068Z,2.83
2018-07-03T12:43:53.079Z,2.50
2018-07-03T12:46:20.823Z,2.90
2018-07-03T12:48:47.847Z,2.57
2018-07-03T12:51:14.844Z,2.33
2018-07-03T12:53:41.847Z,2.80
2018-07-03T12:56:08.880Z,2.50
2018-07-03T12:58:35.879Z,2.90
2018-07-03T13:01:02.871Z,3.20
2018-07-03T13:03:30.736Z,2.97
2018-07-03T13:05:57.727Z,3.27
2018-07-03T13:08:24.724Z,3.57
2018-07-03T13:10:52.718Z,3.00
2018-07-03T13:13:19.720Z,2.93
2018-07-03T13:15:46.720Z,2.70
2018-07-03T13:18:13.773Z,2.77
2018-07-03T13:20:40.760Z,2.80
2018-07-03T13:23:07.943Z,2.97
2018-07-03T13:28:17.236Z,2.90
2018-07-03T13:30:44.282Z,2.50
2018-07-03T13:33:11.294Z,2.13
2018-07-03T13:35:39.116Z,2.30
2018-07-03T13:38:06.169Z,2.43
2018-07-03T13:40:34.186Z,2.60
2018-07-03T13:43:01.193Z,2.70
2018-07-03T13:45:29.008Z,2.50
2018-07-03T13:47:56.011Z,2.17
2018-07-03T13:50:23.978Z,2.13
2018-07-03T13:52:51.016Z,2.73
2018-07-03T13:55:18.032Z,2.67
2018-07-03T13:57:45.047Z,2.47
2018-07-03T14:00:12.102Z,2.40
2018-07-03T14:02:39.964Z,2.63
2018-07-03T14:05:06.968Z,2.13
2018-07-03T14:07:34.861Z,2.50
2018-07-03T14:10:01.854Z,2.27
2018-07-03T14:12:28.951Z,2.73
2018-07-03T14:14:55.994Z,2.53
2018-07-03T14:17:23.719Z,2.67
2018-07-03T14:19:50.721Z,2.43
2018-07-03T14:22:17.771Z,2.60
2018-07-03T14:24:44.773Z,3.03
2018-07-03T14:29:50.301Z,2.90
2018-07-03T14:32:17.308Z,2.50
2018-07-03T14:34:44.336Z,2.80
2018-07-03T14:37:11.363Z,2.57
2018-07-03T14:39:38.368Z,3.30
2018-07-03T14:44:43.903Z,3.53
2018-07-03T14:47:10.960Z,2.67
2018-07-03T14:49:37.957Z,2.93
2018-07-03T14:52:05.008Z,2.90
2018-07-03T14:54:32.744Z,3.30
2018-07-03T14:57:00.587Z,3.07
2018-07-03T14:59:28.357Z,3.90
2018-07-03T15:01:55.355Z,4.90
2018-07-03T15:04:23.191Z,5.53
2018-07-03T15:06:50.238Z,5.10
2018-07-03T15:09:17.262Z,5.20
2018-07-03T15:11:44.271Z,5.20
2018-07-03T15:14:11.335Z,4.87
2018-07-03T15:16:38.332Z,5.10
2018-07-03T15:19:05.340Z,5.13
2018-07-03T15:21:32.387Z,5.33
2018-07-03T15:23:59.393Z,4.47
2018-07-03T15:26:26.420Z,5.20
2018-07-03T15:28:54.417Z,4.70
2018-07-03T15:31:21.417Z,4.73
2018-07-03T15:33:48.426Z,3.97
2018-07-03T15:36:16.271Z,4.67
2018-07-03T15:38:43.270Z,4.83
2018-07-03T15:41:11.620Z,4.90
2018-07-03T15:46:18.816Z,4.93
2018-07-03T15:48:45.842Z,4.27
2018-07-03T15:51:12.853Z,4.13
2018-07-03T15:53:39.863Z,3.70
2018-07-03T15:56:07.015Z,4.90
2018-07-03T15:58:34.107Z,4.07
2018-07-03T16:01:01.953Z,3.80
2018-07-03T16:08:57.448Z,4.13
2018-07-03T16:11:24.455Z,3.93
2018-07-03T16:13:51.465Z,3.80
2018-07-03T16:16:18.513Z,3.90
2018-07-03T16:18:45.532Z,3.83
2018-07-03T16:21:12.540Z,4.03
2018-07-03T16:23:39.586Z,4.07
2018-07-03T16:26:06.598Z,4.03
2018-07-03T16:28:33.604Z,3.70
2018-07-03T16:31:00.645Z,3.90
2018-07-03T16:33:27.659Z,3.93
2018-07-03T16:35:54.657Z,4.13
2018-07-03T16:38:21.697Z,4.03
2018-07-03T16:40:49.558Z,3.50
2018-07-03T16:43:16.566Z,3.43
2018-07-03T16:45:43.598Z,4.20
2018-07-03T16:48:10.757Z,4.40
2018-07-03T16:50:37.599Z,4.17
2018-07-03T16:53:04.645Z,4.53
2018-07-03T16:55:31.642Z,3.87
2018-07-03T16:57:58.655Z,3.90
2018-07-03T17:00:26.465Z,4.47
2018-07-03T17:02:54.418Z,3.90
2018-07-03T17:05:21.432Z,3.97
2018-07-03T17:07:49.292Z,4.03
2018-07-03T17:10:16.311Z,4.10
2018-07-03T17:12:44.071Z,3.67
2018-07-03T17:15:11.113Z,4.17
2018-07-03T17:17:38.155Z,2.77
2018-07-03T17:22:45.653Z,2.90
2018-07-03T17:25:13.639Z,2.80
2018-07-03T17:27:40.659Z,2.50
2018-07-03T17:30:07.800Z,3.43
2018-07-03T17:32:34.885Z,2.50
2018-07-03T17:35:01.887Z,3.17
2018-07-03T17:37:28.929Z,2.67
2018-07-03T17:40:07.743Z,2.87
2018-07-03T17:48:06.562Z,2.60
2018-07-03T17:50:33.559Z,2.27
2018-07-03T17:53:00.561Z,2.40
2018-07-03T17:55:28.452Z,2.03
2018-07-03T17:57:55.456Z,2.40
2018-07-03T18:00:22.472Z,2.60
2018-07-03T18:02:49.517Z,2.73
2018-07-03T18:05:16.548Z,2.30
2018-07-03T18:07:43.523Z,2.53
2018-07-03T18:10:10.567Z,2.37
2018-07-03T18:12:37.578Z,2.23
2018-07-03T18:15:04.589Z,2.40
2018-07-03T18:17:31.623Z,2.10
2018-07-03T18:19:58.732Z,2.93
2018-07-03T18:22:25.736Z,2.43
2018-07-03T18:24:52.785Z,2.43
2018-07-03T18:27:19.863Z,2.43
2018-07-03T18:29:46.786Z,2.70
2018-07-03T18:32:17.851Z,2.50
2018-07-03T18:34:44.865Z,2.60
2018-07-03T18:37:11.836Z,2.60
2018-07-03T18:39:40.320Z,2.50
2018-07-03T18:42:07.622Z,3.07
2018-07-03T18:44:34.417Z,2.90
2018-07-03T18:47:01.450Z,2.97
2018-07-03T18:52:08.676Z,3.70
2018-07-03T18:54:35.677Z,3.00
2018-07-03T18:57:02.785Z,3.03
2018-07-03T18:59:30.778Z,3.03
2018-07-03T19:01:57.829Z,3.37
2018-07-03T19:04:24.839Z,3.40
2018-07-03T19:06:51.872Z,3.30
2018-07-03T19:09:18.963Z,2.90
2018-07-03T19:11:45.906Z,2.63
2018-07-03T19:14:12.964Z,3.20
2018-07-03T19:16:39.981Z,3.10
2018-07-03T19:19:07.172Z,2.33
2018-07-03T19:21:34.307Z,3.13
2018-07-03T19:24:01.326Z,3.00
2018-07-03T19:26:28.426Z,2.70
2018-07-03T19:28:55.460Z,2.67
2018-07-03T19:31:22.524Z,3.20
2018-07-03T19:33:49.524Z,2.90
2018-07-03T19:36:16.639Z,3.27
2018-07-03T19:38:43.594Z,3.00
2018-07-03T19:41:10.612Z,3.07
2018-07-03T19:43:37.652Z,3.40
2018-07-03T19:46:04.675Z,2.97
2018-07-03T19:48:31.675Z,3.37
2018-07-03T19:50:58.770Z,3.03
2018-07-03T19:53:25.723Z,2.73
2018-07-03T19:58:32.093Z,3.37
2018-07-03T20:00:59.098Z,2.90
2018-07-03T20:03:26.098Z,2.80
2018-07-03T20:05:53.292Z,2.87
2018-07-03T20:08:20.302Z,3.03
2018-07-03T20:10:47.365Z,3.53
2018-07-03T20:13:14.408Z,3.90
2018-07-03T20:15:41.404Z,4.10
2018-07-03T20:18:08.497Z,3.37
2018-07-03T20:20:35.678Z,2.97
2018-07-03T20:23:02.681Z,3.50
2018-07-03T20:25:30.399Z,2.80
2018-07-03T20:27:57.430Z,2.70
2018-07-03T20:30:24.447Z,3.00
2018-07-03T20:32:52.616Z,3.13
2018-07-03T20:35:19.628Z,3.87
2018-07-03T20:37:46.628Z,2.83
2018-07-03T20:40:13.640Z,2.83
2018-07-03T20:42:40.697Z,2.97
2018-07-03T20:45:09.150Z,2.57
2018-07-03T20:47:35.880Z,2.80
2018-07-03T20:50:02.928Z,3.30
2018-07-03T20:52:30.790Z,2.70
2018-07-03T20:54:57.833Z,2.70
2018-07-03T20:57:25.880Z,2.47
2018-07-03T20:59:52.916Z,2.67
2018-07-03T21:02:19.886Z,3.33
2018-07-03T21:04:46.957Z,3.40
2018-07-03T21:07:13.978Z,3.27
2018-07-03T21:09:41.011Z,3.13
2018-07-03T21:12:08.053Z,4.50
2018-07-03T21:17:13.586Z,3.78
2018-07-03T21:19:40.575Z,3.23
2018-07-03T21:22:07.566Z,3.20
2018-07-03T21:24:34.596Z,3.27
2018-07-03T21:27:01.921Z,3.03
2018-07-03T21:29:29.188Z,2.73
2018-07-03T21:31:56.097Z,2.63
2018-07-03T21:34:23.046Z,3.37
2018-07-03T21:36:50.048Z,2.80
2018-07-03T21:39:17.151Z,2.73
2018-07-03T21:41:44.083Z,3.03
2018-07-03T21:44:11.125Z,2.67
2018-07-03T21:46:38.179Z,2.77
2018-07-03T21:49:05.309Z,3.00
2018-07-03T21:51:32.312Z,2.47
2018-07-03T21:53:59.331Z,2.53
2018-07-03T21:56:26.340Z,2.70
2018-07-03T21:58:53.345Z,2.67
2018-07-03T22:01:20.393Z,3.30
2018-07-03T22:03:47.400Z,2.07
2018-07-03T22:06:14.399Z,2.40
2018-07-03T22:08:41.458Z,2.80
2018-07-03T22:11:08.446Z,2.57
2018-07-03T22:13:35.447Z,2.00
2018-07-03T22:16:02.493Z,2.67
2018-07-03T22:18:31.590Z,2.60
2018-07-03T22:20:57.892Z,2.37
2018-07-03T22:23:24.927Z,2.33
2018-07-03T22:28:34.686Z,2.58
2018-07-03T22:31:01.688Z,2.27
2018-07-03T22:33:28.683Z,2.60
2018-07-03T22:35:55.705Z,3.13
2018-07-03T22:38:22.721Z,2.73
2018-07-03T22:40:49.801Z,3.67
2018-07-03T22:43:16.851Z,4.07
2018-07-03T22:45:43.874Z,4.07
2018-07-03T22:48:10.870Z,4.03
2018-07-03T22:50:37.878Z,4.60
2018-07-03T22:53:04.872Z,4.40
2018-07-03T22:55:32.588Z,3.23
2018-07-03T22:57:59.628Z,3.07
2018-07-03T23:00:27.437Z,3.93
2018-07-03T23:02:54.424Z,3.10
2018-07-03T23:05:21.462Z,3.23
2018-07-03T23:07:48.487Z,3.10
2018-07-03T23:10:15.452Z,2.63
2018-07-03T23:12:42.517Z,3.30
2018-07-03T23:15:09.510Z,3.70
2018-07-03T23:17:36.505Z,3.73
2018-07-03T23:20:03.530Z,3.83
2018-07-03T23:22:30.564Z,3.50
2018-07-03T23:24:57.560Z,3.07
2018-07-03T23:27:24.606Z,2.87
2018-07-03T23:29:51.615Z,2.87
2018-07-03T23:32:18.703Z,2.43
2018-07-03T23:34:45.728Z,3.70
2018-07-03T23:37:12.720Z,3.50
2018-07-03T23:39:39.708Z,3.03
2018-07-03T23:44:48.186Z,2.83
2018-07-03T23:47:27.143Z,3.10
2018-07-03T23:50:06.021Z,2.77
2018-07-03T23:52:44.888Z,2.70
2018-07-03T23:55:23.778Z,2.20
2018-07-03T23:58:02.570Z,2.60
